createdAt,value
2018-06-10T00:00:51.055Z,19.37
2018-06-10T00:03:20.016Z,17.63
2018-06-10T00:05:48.946Z,21.93
2018-06-10T00:08:17.923Z,20.67
2018-06-10T00:10:47.112Z,18.57
2018-06-10T00:13:16.077Z,18.73
2018-06-10T00:15:45.118Z,15.83
2018-06-10T00:18:14.083Z,17.60
2018-06-10T00:20:43.149Z,21.30
2018-06-10T00:23:12.268Z,18.73
2018-06-10T00:25:41.254Z,18.37
2018-06-10T00:28:10.511Z,16.63
2018-06-10T00:30:39.630Z,19.07
2018-06-10T00:33:08.567Z,18.40
2018-06-10T00:35:37.485Z,19.03
2018-06-10T00:38:06.435Z,22.43
2018-06-10T00:40:35.426Z,24.97
2018-06-10T00:43:04.461Z,30.10
2018-06-10T00:45:33.405Z,35.77
2018-06-10T00:48:02.526Z,35.37
2018-06-10T00:50:31.269Z,42.00
2018-06-10T00:53:00.038Z,40.63
2018-06-10T00:55:29.263Z,40.73
2018-06-10T00:57:58.272Z,33.13
2018-06-10T01:00:27.289Z,32.70
2018-06-10T01:02:55.961Z,33.70
2018-06-10T01:05:24.700Z,36.40
2018-06-10T01:07:53.670Z,30.47
2018-06-10T01:10:22.614Z,27.07
2018-06-10T01:12:51.834Z,30.83
2018-06-10T01:15:20.824Z,33.07
2018-06-10T01:17:49.766Z,31.10
2018-06-10T01:20:18.691Z,29.97
2018-06-10T01:22:47.738Z,31.73
2018-06-10T01:25:16.669Z,29.53
2018-06-10T01:27:45.791Z,28.30
2018-06-10T01:30:14.867Z,30.50
2018-06-10T01:32:43.838Z,22.83
2018-06-10T01:35:12.973Z,22.67
2018-06-10T01:37:42.017Z,21.93
2018-06-10T01:40:11.031Z,20.23
2018-06-10T01:42:39.984Z,24.63
2018-06-10T01:45:08.957Z,23.50
2018-06-10T01:47:37.890Z,17.07
2018-06-10T01:50:06.861Z,19.83
2018-06-10T01:52:35.808Z,23.10
2018-06-10T01:55:04.879Z,19.87
2018-06-10T01:57:33.882Z,21.90
2018-06-10T02:00:02.889Z,25.43
2018-06-10T02:02:31.769Z,26.03
2018-06-10T02:05:00.702Z,22.80
2018-06-10T02:07:29.674Z,26.67
2018-06-10T02:09:58.710Z,29.83
2018-06-10T02:12:27.873Z,27.53
2018-06-10T02:14:56.803Z,25.27
2018-06-10T02:17:25.749Z,23.27
2018-06-10T02:19:54.688Z,24.90
2018-06-10T02:22:23.639Z,29.97
2018-06-10T02:24:52.600Z,28.43
2018-06-10T02:27:21.649Z,31.27
2018-06-10T02:29:50.574Z,31.20
2018-06-10T02:32:19.290Z,30.90
2018-06-10T02:34:48.031Z,34.80
2018-06-10T02:37:17.035Z,32.03
2018-06-10T02:39:45.937Z,32.13
2018-06-10T02:42:15.233Z,27.77
2018-06-10T02:44:44.119Z,24.33
2018-06-10T02:47:12.842Z,33.40
2018-06-10T02:49:41.794Z,25.73
2018-06-10T02:52:10.890Z,35.77
2018-06-10T02:54:40.087Z,32.07
2018-06-10T02:57:08.992Z,22.57
2018-06-10T02:59:37.769Z,38.47
2018-06-10T03:02:06.764Z,30.77
2018-06-10T03:04:35.758Z,35.10
2018-06-10T03:07:04.711Z,34.03
2018-06-10T03:09:34.094Z,37.70
2018-06-10T03:12:03.070Z,37.67
2018-06-10T03:14:32.034Z,39.23
2018-06-10T03:17:01.417Z,34.83
2018-06-10T03:19:30.500Z,35.80
2018-06-10T03:21:59.573Z,43.57
2018-06-10T03:24:28.523Z,32.27
2018-06-10T03:26:57.419Z,33.17
2018-06-10T03:29:26.331Z,31.93
2018-06-10T03:31:55.259Z,40.73
2018-06-10T03:34:24.202Z,27.77
2018-06-10T03:36:53.323Z,38.53
2018-06-10T03:39:22.268Z,34.37
2018-06-10T03:41:51.212Z,30.67
2018-06-10T03:44:20.283Z,31.03
2018-06-10T03:46:49.221Z,26.87
2018-06-10T03:49:18.237Z,25.60
2018-06-10T03:51:47.207Z,21.63
2018-06-10T03:54:16.081Z,20.23
2018-06-10T03:56:45.141Z,23.20
2018-06-10T03:59:14.043Z,28.00
2018-06-10T04:01:42.990Z,28.87
2018-06-10T04:04:11.938Z,20.83
2018-06-10T04:06:40.902Z,17.40
2018-06-10T04:09:09.883Z,21.47
2018-06-10T04:11:38.816Z,20.27
2018-06-10T04:14:07.892Z,22.23
2018-06-10T04:16:36.859Z,21.17
2018-06-10T04:19:05.795Z,20.20
2018-06-10T04:21:34.768Z,21.33
2018-06-10T04:24:03.688Z,22.10
2018-06-10T04:26:32.462Z,19.17
2018-06-10T04:29:01.306Z,19.93
2018-06-10T04:31:30.369Z,18.53
2018-06-10T04:33:59.258Z,18.77
2018-06-10T04:36:28.282Z,17.53
2018-06-10T04:38:57.250Z,27.23
2018-06-10T04:41:26.184Z,18.50
2018-06-10T04:43:55.118Z,20.03
2018-06-10T04:46:24.098Z,23.03
2018-06-10T04:48:53.135Z,21.03
2018-06-10T04:51:22.127Z,22.50
2018-06-10T04:53:51.183Z,21.53
2018-06-10T04:56:20.138Z,19.63
2018-06-10T04:58:49.079Z,26.87
2018-06-10T05:01:18.103Z,19.63
2018-06-10T05:03:47.257Z,19.97
2018-06-10T05:06:16.345Z,26.27
2018-06-10T05:08:45.362Z,20.87
2018-06-10T05:11:14.423Z,26.67
2018-06-10T05:13:43.361Z,24.00
2018-06-10T05:16:13.649Z,18.40
2018-06-10T05:18:42.817Z,23.13
2018-06-10T05:21:11.761Z,22.53
2018-06-10T05:23:40.721Z,24.93
2018-06-10T05:26:09.805Z,24.00
2018-06-10T05:28:38.811Z,27.93
2018-06-10T05:31:07.941Z,27.20
2018-06-10T05:33:36.862Z,22.13
2018-06-10T05:36:05.997Z,22.40
2018-06-10T05:38:35.129Z,21.47
2018-06-10T05:41:04.128Z,24.07
2018-06-10T05:43:33.151Z,22.17
2018-06-10T05:46:02.179Z,18.90
2018-06-10T05:48:31.312Z,29.50
2018-06-10T05:51:00.290Z,27.77
2018-06-10T05:53:29.346Z,27.20
2018-06-10T05:55:58.023Z,22.23
2018-06-10T05:58:26.792Z,24.73
2018-06-10T06:00:56.009Z,23.30
2018-06-10T06:03:24.977Z,19.97
2018-06-10T06:05:54.047Z,24.77
2018-06-10T06:08:23.078Z,23.83
2018-06-10T06:10:52.228Z,21.20
2018-06-10T06:13:21.155Z,23.13
2018-06-10T06:15:50.363Z,22.60
2018-06-10T06:18:19.366Z,21.57
2018-06-10T06:20:48.366Z,26.27
2018-06-10T06:23:17.110Z,27.17
2018-06-10T06:25:45.876Z,25.10
2018-06-10T06:28:15.050Z,26.03
2018-06-10T06:30:44.003Z,26.07
2018-06-10T06:33:13.009Z,26.30
2018-06-10T06:35:42.097Z,22.73
2018-06-10T06:38:11.351Z,23.17
2018-06-10T06:40:40.294Z,28.23
2018-06-10T06:43:09.240Z,26.33
2018-06-10T06:45:38.294Z,22.63
2018-06-10T06:48:09.086Z,24.30
2018-06-10T06:50:37.887Z,25.27
2018-06-10T06:53:06.833Z,33.03
2018-06-10T06:55:35.826Z,35.50
2018-06-10T06:58:04.802Z,31.17
2018-06-10T07:00:33.785Z,24.20
2018-06-10T07:03:02.758Z,33.70
2018-06-10T07:05:31.880Z,42.07
2018-06-10T07:08:00.992Z,48.43
2018-06-10T07:10:29.949Z,42.57
2018-06-10T07:12:58.881Z,55.80
2018-06-10T07:15:28.034Z,57.20
2018-06-10T07:17:57.107Z,52.10
2018-06-10T07:20:26.074Z,49.10
2018-06-10T07:22:55.099Z,51.13
2018-06-10T07:25:24.209Z,62.53
2018-06-10T07:27:53.238Z,61.73
2018-06-10T07:30:22.277Z,55.10
2018-06-10T07:32:51.262Z,63.27
2018-06-10T07:35:20.465Z,58.53
2018-06-10T07:37:49.406Z,64.07
2018-06-10T07:40:18.459Z,62.50
2018-06-10T07:42:47.558Z,53.97
2018-06-10T07:45:16.230Z,50.83
2018-06-10T07:47:44.973Z,51.70
2018-06-10T07:50:13.918Z,43.70
2018-06-10T07:52:43.101Z,40.20
2018-06-10T07:55:12.076Z,48.13
2018-06-10T07:57:41.008Z,39.00
2018-06-10T08:00:10.054Z,38.77
2018-06-10T08:02:38.686Z,29.70
2018-06-10T08:05:07.598Z,31.13
2018-06-10T08:07:36.565Z,40.27
2018-06-10T08:10:05.625Z,37.37
2018-06-10T08:12:34.322Z,38.57
2018-06-10T08:15:03.362Z,36.30
2018-06-10T08:17:32.405Z,37.83
2018-06-10T08:20:01.402Z,36.03
2018-06-10T08:22:30.478Z,36.83
2018-06-10T08:24:59.431Z,33.20
2018-06-10T08:27:28.458Z,33.57
2018-06-10T08:29:57.443Z,34.17
2018-06-10T08:32:26.382Z,32.63
2018-06-10T08:34:55.356Z,30.23
2018-06-10T08:37:24.386Z,36.70
2018-06-10T08:39:53.368Z,35.47
2018-06-10T08:42:22.335Z,32.27
2018-06-10T08:44:51.309Z,33.23
2018-06-10T08:47:20.319Z,30.93
2018-06-10T08:49:49.360Z,36.70
2018-06-10T08:52:18.489Z,33.07
2018-06-10T08:54:47.522Z,29.67
2018-06-10T08:57:16.645Z,30.83
2018-06-10T08:59:45.582Z,29.43
2018-06-10T09:02:14.601Z,31.30
2018-06-10T09:04:43.665Z,31.27
2018-06-10T09:07:12.690Z,27.50
2018-06-10T09:09:41.837Z,29.63
2018-06-10T09:12:10.876Z,27.10
2018-06-10T09:14:39.854Z,25.50
2018-06-10T09:17:08.849Z,29.90
2018-06-10T09:19:37.906Z,26.67
2018-06-10T09:22:06.845Z,30.60
2018-06-10T09:24:35.841Z,28.53
2018-06-10T09:27:05.071Z,30.73
2018-06-10T09:29:34.047Z,27.13
2018-06-10T09:32:03.137Z,24.13
2018-06-10T09:34:32.210Z,29.93
2018-06-10T09:37:01.173Z,31.37
2018-06-10T09:39:30.137Z,27.00
2018-06-10T09:41:59.086Z,30.60
2018-06-10T09:44:28.233Z,23.73
2018-06-10T09:46:57.190Z,27.83
2018-06-10T09:49:26.317Z,20.57
2018-06-10T09:51:55.494Z,25.00
2018-06-10T09:54:24.465Z,22.87
2018-06-10T09:56:53.463Z,33.33
2018-06-10T09:59:22.618Z,31.50
2018-06-10T10:01:51.698Z,31.67
2018-06-10T10:04:20.901Z,28.43
2018-06-10T10:06:50.218Z,26.80
2018-06-10T10:09:19.190Z,26.30
2018-06-10T10:11:48.330Z,20.47
2018-06-10T10:14:17.363Z,24.63
2018-06-10T10:16:46.537Z,25.03
2018-06-10T10:19:15.638Z,25.53
2018-06-10T10:21:44.781Z,27.97
2018-06-10T10:24:13.757Z,24.73
2018-06-10T10:26:42.736Z,26.97
2018-06-10T10:29:11.695Z,24.53
2018-06-10T10:31:40.749Z,24.67
2018-06-10T10:34:09.875Z,26.43
2018-06-10T10:36:39.163Z,25.73
2018-06-10T10:39:08.139Z,25.47
2018-06-10T10:41:37.126Z,22.80
2018-06-10T10:44:06.202Z,20.70
2018-06-10T10:46:35.223Z,20.47
2018-06-10T10:49:04.454Z,20.20
2018-06-10T10:51:33.495Z,21.60
2018-06-10T10:54:02.410Z,20.53
2018-06-10T10:56:31.374Z,25.67
2018-06-10T10:59:00.324Z,19.27
2018-06-10T11:01:29.343Z,21.87
2018-06-10T11:03:58.126Z,23.40
2018-06-10T11:06:26.900Z,20.37
2018-06-10T11:08:55.850Z,21.40
2018-06-10T11:11:24.836Z,22.43
2018-06-10T11:13:53.750Z,20.77
2018-06-10T11:16:22.749Z,23.30
2018-06-10T11:18:51.777Z,19.80
2018-06-10T11:21:20.882Z,24.37
2018-06-10T11:23:49.874Z,23.23
2018-06-10T11:26:19.030Z,22.50
2018-06-10T11:28:48.006Z,21.73
2018-06-10T11:31:17.027Z,20.67
2018-06-10T11:33:46.070Z,20.57
2018-06-10T11:36:15.073Z,17.60
2018-06-10T11:38:44.052Z,21.93
2018-06-10T11:41:13.132Z,21.03
2018-06-10T11:43:42.130Z,19.93
2018-06-10T11:46:11.290Z,22.60
2018-06-10T11:48:40.379Z,21.30
2018-06-10T11:51:09.353Z,22.23
2018-06-10T11:53:38.402Z,24.17
2018-06-10T11:56:07.499Z,25.27
2018-06-10T11:58:36.421Z,23.40
2018-06-10T12:01:05.371Z,27.40
2018-06-10T12:03:34.482Z,23.97
2018-06-10T12:06:03.459Z,26.03
2018-06-10T12:08:32.457Z,21.53
2018-06-10T12:11:01.506Z,27.00
2018-06-10T12:13:30.507Z,23.63
2018-06-10T12:15:59.506Z,21.77
2018-06-10T12:18:28.361Z,25.30
2018-06-10T12:20:57.202Z,20.30
2018-06-10T12:23:26.160Z,19.73
2018-06-10T12:25:55.084Z,19.70
2018-06-10T12:28:24.018Z,22.07
2018-06-10T12:30:53.043Z,19.10
2018-06-10T12:33:22.034Z,21.00
2018-06-10T12:35:51.235Z,21.43
2018-06-10T12:38:20.173Z,25.47
2018-06-10T12:40:49.177Z,18.80
2018-06-10T12:43:18.418Z,21.27
2018-06-10T12:45:47.479Z,17.87
2018-06-10T12:48:16.498Z,19.50
2018-06-10T12:50:45.432Z,19.77
2018-06-10T12:53:14.519Z,20.20
2018-06-10T12:55:43.486Z,20.90
2018-06-10T12:58:12.165Z,18.07
2018-06-10T13:00:41.086Z,16.57
2018-06-10T13:03:10.125Z,19.07
2018-06-10T13:05:39.145Z,17.87
2018-06-10T13:08:08.136Z,16.97
2018-06-10T13:10:37.142Z,18.50
2018-06-10T13:13:06.109Z,17.70
2018-06-10T13:15:35.325Z,17.43
2018-06-10T13:18:04.597Z,13.23
2018-06-10T13:20:34.043Z,14.40
2018-06-10T13:23:02.801Z,22.73
2018-06-10T13:25:31.559Z,17.20
2018-06-10T13:28:00.582Z,16.10
2018-06-10T13:30:29.530Z,14.53
2018-06-10T13:32:58.667Z,14.43
2018-06-10T13:35:27.639Z,16.57
2018-06-10T13:37:56.366Z,16.77
2018-06-10T13:40:25.223Z,15.23
2018-06-10T13:42:54.222Z,17.90
2018-06-10T13:45:23.953Z,16.70
2018-06-10T13:47:53.075Z,18.07
2018-06-10T13:50:22.523Z,13.53
2018-06-10T13:52:51.650Z,13.43
2018-06-10T13:55:20.587Z,14.07
2018-06-10T13:57:50.866Z,13.43
2018-06-10T14:00:19.974Z,12.10
2018-06-10T14:02:48.902Z,15.67
2018-06-10T14:05:17.998Z,14.53
2018-06-10T14:07:46.961Z,12.33
2018-06-10T14:10:15.938Z,14.97
2018-06-10T14:12:45.082Z,14.30
2018-06-10T14:15:13.813Z,13.33
2018-06-10T14:17:42.578Z,12.70
2018-06-10T14:20:11.593Z,14.63
2018-06-10T14:22:40.674Z,16.70
2018-06-10T14:25:09.322Z,14.07
2018-06-10T14:27:38.519Z,12.93
2018-06-10T14:30:07.585Z,13.10
2018-06-10T14:32:36.632Z,15.03
2018-06-10T14:35:05.641Z,14.17
2018-06-10T14:37:34.769Z,15.90
2018-06-10T14:40:03.834Z,11.80
2018-06-10T14:42:32.963Z,13.80
2018-06-10T14:45:02.289Z,12.50
2018-06-10T14:47:31.239Z,14.53
2018-06-10T14:50:00.196Z,12.37
2018-06-10T14:52:29.241Z,16.50
2018-06-10T14:54:58.237Z,12.27
2018-06-10T14:57:27.154Z,12.70
2018-06-10T14:59:56.218Z,13.17
2018-06-10T15:02:25.239Z,15.10
2018-06-10T15:04:54.127Z,14.40
2018-06-10T15:07:22.869Z,12.03
2018-06-10T15:09:51.845Z,12.90
2018-06-10T15:12:20.891Z,14.43
2018-06-10T15:14:49.986Z,15.03
2018-06-10T15:17:19.017Z,13.47
2018-06-10T15:19:48.063Z,11.73
2018-06-10T15:22:17.896Z,11.83
2018-06-10T15:24:47.246Z,12.50
2018-06-10T15:27:16.303Z,12.00
2018-06-10T15:29:45.452Z,14.43
2018-06-10T15:32:14.399Z,14.00
2018-06-10T15:34:45.499Z,10.87
2018-06-10T15:37:14.731Z,11.77
2018-06-10T15:39:43.702Z,10.53
2018-06-10T15:42:16.417Z,12.13
2018-06-10T15:44:46.623Z,14.33
2018-06-10T15:47:15.702Z,17.60
2018-06-10T15:49:44.842Z,10.63
2018-06-10T15:52:13.868Z,12.73
2018-06-10T15:54:44.876Z,12.70
2018-06-10T15:57:14.020Z,11.90
2018-06-10T15:59:42.989Z,13.67
2018-06-10T16:02:12.120Z,12.40
2018-06-10T16:04:41.302Z,11.53
2018-06-10T16:07:10.392Z,10.43
2018-06-10T16:09:39.613Z,12.10
2018-06-10T16:12:08.743Z,10.80
2018-06-10T16:14:37.843Z,11.70
2018-06-10T16:17:07.627Z,12.80
2018-06-10T16:19:36.581Z,12.00
2018-06-10T16:22:06.638Z,15.00
2018-06-10T16:24:35.966Z,11.00
2018-06-10T16:27:04.961Z,9.43
2018-06-10T16:29:33.911Z,11.50
2018-06-10T16:32:03.022Z,12.83
2018-06-10T16:34:32.173Z,10.93
2018-06-10T16:37:01.266Z,10.47
2018-06-10T16:39:29.958Z,13.03
2018-06-10T16:41:58.648Z,10.70
2018-06-10T16:44:27.831Z,11.67
2018-06-10T16:46:56.806Z,10.30
2018-06-10T16:49:25.878Z,16.67
2018-06-10T16:51:55.069Z,12.40
2018-06-10T16:54:24.542Z,14.23
2018-06-10T16:56:53.919Z,15.03
2018-06-10T16:59:22.869Z,11.70
2018-06-10T17:01:51.792Z,11.87
2018-06-10T17:04:20.762Z,11.77
2018-06-10T17:06:49.834Z,10.20
2018-06-10T17:09:18.859Z,13.67
2018-06-10T17:11:47.865Z,11.10
2018-06-10T17:14:16.906Z,10.20
2018-06-10T17:16:45.978Z,11.40
2018-06-10T17:19:15.043Z,10.53
2018-06-10T17:21:44.124Z,9.10
2018-06-10T17:24:13.079Z,8.83
2018-06-10T17:26:42.089Z,8.77
2018-06-10T17:29:11.416Z,12.40
2018-06-10T17:31:40.400Z,13.50
2018-06-10T17:34:09.390Z,13.57
2018-06-10T17:36:38.369Z,9.93
2018-06-10T17:39:07.625Z,9.30
2018-06-10T17:41:36.567Z,9.87
2018-06-10T17:44:05.633Z,12.00
2018-06-10T17:46:34.798Z,11.43
2018-06-10T17:49:03.815Z,8.67
2018-06-10T17:51:32.861Z,15.30
2018-06-10T17:54:01.989Z,9.73
2018-06-10T17:56:30.994Z,10.37
2018-06-10T17:59:00.049Z,10.63
2018-06-10T18:01:29.061Z,7.83
2018-06-10T18:03:58.078Z,11.37
2018-06-10T18:06:27.110Z,9.40
2018-06-10T18:08:55.995Z,10.13
2018-06-10T18:11:24.959Z,11.37
2018-06-10T18:13:54.027Z,11.23
2018-06-10T18:16:23.111Z,13.50
2018-06-10T18:18:52.975Z,12.10
2018-06-10T18:21:21.963Z,7.17
2018-06-10T18:23:51.088Z,8.43
2018-06-10T18:26:20.022Z,8.67
2018-06-10T18:28:49.268Z,12.40
2018-06-10T18:31:18.396Z,8.00
2018-06-10T18:33:47.667Z,8.73
2018-06-10T18:36:16.703Z,10.83
2018-06-10T18:38:45.633Z,10.43
2018-06-10T18:41:14.703Z,15.00
2018-06-10T18:43:43.614Z,15.23
2018-06-10T18:46:13.050Z,10.70
2018-06-10T18:48:42.086Z,9.87
2018-06-10T18:51:11.163Z,9.63
2018-06-10T18:53:40.445Z,9.70
2018-06-10T18:56:09.605Z,10.07
2018-06-10T18:58:38.583Z,10.43
2018-06-10T19:01:07.589Z,8.03
2018-06-10T19:03:36.593Z,8.63
2018-06-10T19:06:05.596Z,9.93
2018-06-10T19:08:34.563Z,11.17
2018-06-10T19:11:03.590Z,13.40
2018-06-10T19:13:32.597Z,10.60
2018-06-10T19:16:01.777Z,10.73
2018-06-10T19:18:30.923Z,9.53
2018-06-10T19:21:00.268Z,11.33
2018-06-10T19:23:29.294Z,10.90
2018-06-10T19:26:03.206Z,13.70
2018-06-10T19:28:32.188Z,10.00
2018-06-10T19:31:01.219Z,11.83
2018-06-10T19:33:30.235Z,12.27
2018-06-10T19:35:59.263Z,14.13
2018-06-10T19:38:28.370Z,13.07
2018-06-10T19:40:57.555Z,9.70
2018-06-10T19:43:26.674Z,11.87
2018-06-10T19:45:55.834Z,10.53
2018-06-10T19:48:24.960Z,10.67
2018-06-10T19:50:54.163Z,11.03
2018-06-10T19:53:23.143Z,10.93
2018-06-10T19:55:52.238Z,13.57
2018-06-10T19:58:21.381Z,12.83
2018-06-10T20:00:50.275Z,14.93
2018-06-10T20:03:19.101Z,12.23
2018-06-10T20:05:48.186Z,12.23
2018-06-10T20:08:18.317Z,12.17
2018-06-10T20:10:47.385Z,15.43
2018-06-10T20:13:16.207Z,16.57
2018-06-10T20:15:45.217Z,16.17
2018-06-10T20:18:14.240Z,12.07
2018-06-10T20:20:43.262Z,12.20
2018-06-10T20:23:12.297Z,12.53
2018-06-10T20:25:41.354Z,13.60
2018-06-10T20:28:10.457Z,12.43
2018-06-10T20:30:39.461Z,13.83
2018-06-10T20:33:08.526Z,13.23
2018-06-10T20:35:37.532Z,11.60
2018-06-10T20:38:06.578Z,16.70
2018-06-10T20:40:35.510Z,13.17
2018-06-10T20:43:04.494Z,10.73
2018-06-10T20:45:33.478Z,13.70
2018-06-10T20:48:02.445Z,14.77
2018-06-10T20:50:31.431Z,15.53
2018-06-10T20:53:00.446Z,15.63
2018-06-10T20:55:29.363Z,15.27
2018-06-10T20:57:58.448Z,15.57
2018-06-10T21:00:27.608Z,15.03
2018-06-10T21:02:56.750Z,12.50
2018-06-10T21:05:26.579Z,15.13
2018-06-10T21:07:55.625Z,13.87
2018-06-10T21:10:24.846Z,14.07
2018-06-10T21:12:53.887Z,13.43
2018-06-10T21:15:22.994Z,17.13
2018-06-10T21:17:52.126Z,14.97
2018-06-10T21:20:21.270Z,14.77
2018-06-10T21:22:50.308Z,17.33
2018-06-10T21:25:19.921Z,15.53
2018-06-10T21:27:49.201Z,15.77
2018-06-10T21:30:18.179Z,18.03
2018-06-10T21:32:47.185Z,14.93
2018-06-10T21:35:16.118Z,13.43
2018-06-10T21:37:45.185Z,13.90
2018-06-10T21:40:14.185Z,12.80
2018-06-10T21:42:43.533Z,15.60
2018-06-10T21:45:12.526Z,17.50
2018-06-10T21:47:41.693Z,14.90
2018-06-10T21:50:10.880Z,15.63
2018-06-10T21:52:39.937Z,17.13
2018-06-10T21:55:08.936Z,17.60
2018-06-10T21:57:38.026Z,18.17
2018-06-10T22:00:17.252Z,16.83
2018-06-10T22:02:46.237Z,19.33
2018-06-10T22:05:15.186Z,17.80
2018-06-10T22:07:45.395Z,23.43
2018-06-10T22:10:14.349Z,24.67
2018-06-10T22:12:43.302Z,19.90
2018-06-10T22:15:12.255Z,21.33
2018-06-10T22:17:41.219Z,24.50
2018-06-10T22:20:10.154Z,27.77
2018-06-10T22:22:39.331Z,24.27
2018-06-10T22:25:08.416Z,22.10
2018-06-10T22:27:38.269Z,25.30
2018-06-10T22:30:07.340Z,19.93
2018-06-10T22:32:36.243Z,19.17
2018-06-10T22:35:05.258Z,20.23
2018-06-10T22:37:34.257Z,22.80
2018-06-10T22:40:03.275Z,18.93
2018-06-10T22:42:32.254Z,25.47
2018-06-10T22:45:01.233Z,20.87
2018-06-10T22:47:30.203Z,22.43
2018-06-10T22:49:59.166Z,25.90
2018-06-10T22:52:28.124Z,23.90
2018-06-10T22:54:57.112Z,24.37
2018-06-10T22:57:26.213Z,22.73
2018-06-10T22:59:55.170Z,27.53
2018-06-10T23:02:24.182Z,22.57
2018-06-10T23:04:53.161Z,27.33
2018-06-10T23:07:22.138Z,20.33
2018-06-10T23:09:51.125Z,20.40
2018-06-10T23:12:20.111Z,24.37
2018-06-10T23:14:49.062Z,22.67
2018-06-10T23:17:18.038Z,20.53
2018-06-10T23:19:47.019Z,20.07
2018-06-10T23:22:16.122Z,24.80
2018-06-10T23:24:45.052Z,18.73
2018-06-10T23:27:14.223Z,22.93
2018-06-10T23:29:43.093Z,22.57
2018-06-10T23:32:12.062Z,20.83
2018-06-10T23:34:41.029Z,22.43
2018-06-10T23:37:10.106Z,19.63
2018-06-10T23:39:39.057Z,18.23
2018-06-10T23:42:08.011Z,16.30
2018-06-10T23:44:36.957Z,19.50
2018-06-10T23:47:06.003Z,23.97
2018-06-10T23:49:34.952Z,19.40
2018-06-10T23:52:03.896Z,19.30
2018-06-10T23:54:32.848Z,19.97
2018-06-10T23:57:01.804Z,20.97
2018-06-10T23:59:30.789Z,16.47
